Time;durP1;ratioP1;P1;durP2;ratioP2;P2;SDS_P1;SDS_P2;PMS_P1;PMS_P2;Temp;Humidity;BMP_temperature;BMP_pressure;BME280_temperature;BME280_humidity;BME280_pressure;Samples;Min_cycle;Max_cycle;Signal;HPM_P1;HPM_P2
2023/12/27 00:00:33;;;;;;;5.57;1.87;;;8.90;99.90;;;;;;5069386;28;20423;-75
2023/12/27 00:02:58;;;;;;;2.33;1.27;;;8.80;99.90;;;;;;5068949;28;20466;-75
2023/12/27 00:05:24;;;;;;;2.40;1.50;;;8.80;99.90;;;;;;5068530;28;21018;-74
2023/12/27 00:07:49;;;;;;;1.87;1.10;;;8.80;99.90;;;;;;5050751;28;20661;-75
2023/12/27 00:10:15;;;;;;;3.20;0.90;;;8.80;99.90;;;;;;5068757;28;20324;-75
2023/12/27 00:12:41;;;;;;;4.77;1.20;;;8.70;99.90;;;;;;5069026;28;20210;-75
2023/12/27 00:15:07;;;;;;;2.80;0.87;;;8.70;99.90;;;;;;5068988;28;20190;-75
2023/12/27 00:17:32;;;;;;;4.50;1.63;;;8.80;99.90;;;;;;5067670;28;20304;-75
2023/12/27 00:19:58;;;;;;;5.00;1.10;;;8.70;99.90;;;;;;5067478;28;20429;-74
2023/12/27 00:22:24;;;;;;;4.40;1.10;;;8.80;99.90;;;;;;5067373;28;20285;-75
2023/12/27 00:24:49;;;;;;;2.97;1.00;;;8.80;99.90;;;;;;5066853;28;20257;-75
2023/12/27 00:27:15;;;;;;;2.13;1.03;;;8.80;99.90;;;;;;5068648;28;20413;-75
2023/12/27 00:29:41;;;;;;;4.10;1.50;;;8.80;99.90;;;;;;5068706;28;20911;-74
2023/12/27 00:32:08;;;;;;;2.80;1.10;;;8.80;99.90;;;;;;5050735;28;20624;-75
2023/12/27 00:34:38;;;;;;;1.27;0.90;;;8.70;99.90;;;;;;5067335;28;20175;-75
2023/12/27 00:37:04;;;;;;;1.73;0.90;;;8.80;99.90;;;;;;5068910;28;20441;-75
2023/12/27 00:39:30;;;;;;;2.37;1.07;;;8.80;99.90;;;;;;5069118;28;21172;-75
2023/12/27 00:41:56;;;;;;;1.03;0.70;;;8.70;99.90;;;;;;5068843;28;20413;-75
2023/12/27 00:44:21;;;;;;;1.53;1.10;;;8.70;99.90;;;;;;5068679;28;20482;-75
2023/12/27 00:46:47;;;;;;;2.20;1.00;;;8.70;99.90;;;;;;5068709;28;21133;-75
2023/12/27 00:49:13;;;;;;;2.00;0.67;;;8.80;99.90;;;;;;5071353;28;20179;-75
2023/12/27 00:51:39;;;;;;;1.00;0.87;;;8.90;99.90;;;;;;5071254;28;20282;-74
2023/12/27 00:54:04;;;;;;;7.90;1.83;;;8.80;99.90;;;;;;5071334;28;20316;-75
2023/12/27 00:56:30;;;;;;;2.03;1.30;;;8.70;99.90;;;;;;5072309;28;20570;-73
2023/12/27 00:58:55;;;;;;;1.80;1.03;;;8.70;99.90;;;;;;5070688;28;20564;-74
2023/12/27 01:01:21;;;;;;;2.60;1.10;;;8.70;99.90;;;;;;5071214;28;20187;-74
2023/12/27 01:03:47;;;;;;;2.20;1.37;;;8.60;99.90;;;;;;5072171;28;20257;-74
2023/12/27 01:06:13;;;;;;;4.20;1.00;;;8.60;99.90;;;;;;5071971;28;20299;-74
2023/12/27 01:08:38;;;;;;;2.07;1.00;;;8.50;99.90;;;;;;5070742;28;20417;-74
2023/12/27 01:11:04;;;;;;;2.30;1.40;;;8.50;99.90;;;;;;5072201;28;20534;-75
2023/12/27 01:13:31;;;;;;;4.03;1.60;;;8.40;99.90;;;;;;5071906;28;20669;-74
2023/12/27 01:15:59;;;;;;;6.47;2.53;;;8.50;99.90;;;;;;5071901;28;21086;-74
2023/12/27 01:18:24;;;;;;;4.37;1.80;;;8.30;99.90;;;;;;5071771;28;20443;-75
2023/12/27 01:20:50;;;;;;;5.83;2.37;;;8.20;99.90;;;;;;5070303;28;21030;-75
2023/12/27 01:23:15;;;;;;;4.40;1.53;;;8.30;99.90;;;;;;5070179;28;20955;-75
2023/12/27 01:25:41;;;;;;;4.00;1.77;;;8.20;99.90;;;;;;5070274;28;20215;-74
2023/12/27 01:28:07;;;;;;;2.47;1.80;;;8.20;99.90;;;;;;5070147;28;20194;-74
2023/12/27 01:30:32;;;;;;;2.43;1.40;;;8.20;99.90;;;;;;5053610;28;20666;-74
2023/12/27 01:32:58;;;;;;;3.60;2.20;;;8.10;99.90;;;;;;5071654;28;20179;-74
2023/12/27 01:35:24;;;;;;;5.47;1.63;;;8.10;99.90;;;;;;5053248;28;20234;-73
2023/12/27 01:37:50;;;;;;;6.43;2.17;;;8.10;99.90;;;;;;5070260;28;20421;-73
2023/12/27 01:40:16;;;;;;;2.30;1.53;;;8.10;99.90;;;;;;5070303;28;20197;-73
2023/12/27 01:42:41;;;;;;;2.80;1.27;;;8.00;99.90;;;;;;5070313;28;20552;-73
2023/12/27 01:45:07;;;;;;;4.63;1.50;;;8.00;99.90;;;;;;5069844;28;20453;-73
2023/12/27 01:47:34;;;;;;;3.23;1.90;;;7.90;99.90;;;;;;5053411;28;20200;-73
2023/12/27 01:50:01;;;;;;;5.63;1.43;;;7.90;99.90;;;;;;5070032;28;20308;-74
2023/12/27 01:52:27;;;;;;;4.00;1.67;;;7.90;99.90;;;;;;5069912;28;20494;-73
2023/12/27 01:54:53;;;;;;;7.00;1.40;;;8.00;99.90;;;;;;5071097;28;20485;-72
2023/12/27 01:57:19;;;;;;;1.23;1.10;;;8.00;99.90;;;;;;5070656;28;20198;-74
2023/12/27 01:59:46;;;;;;;2.17;1.20;;;8.00;99.90;;;;;;5071209;28;20426;-74
2023/12/27 02:02:13;;;;;;;3.90;1.23;;;8.10;99.90;;;;;;5069680;28;20422;-75
2023/12/27 02:04:39;;;;;;;3.30;1.70;;;8.10;99.90;;;;;;5069382;28;20479;-74
2023/12/27 02:07:05;;;;;;;1.27;0.90;;;8.10;99.90;;;;;;5069549;28;20441;-74
2023/12/27 02:09:31;;;;;;;3.20;1.10;;;8.10;99.90;;;;;;5071077;28;20237;-74
2023/12/27 02:11:57;;;;;;;3.83;2.30;;;8.10;99.90;;;;;;5069416;28;20417;-74
2023/12/27 02:14:22;;;;;;;7.20;3.60;;;8.10;99.90;;;;;;5069425;28;20804;-74
2023/12/27 02:16:49;;;;;;;2.10;1.30;;;8.10;99.90;;;;;;5070828;28;20207;-74
2023/12/27 02:19:20;;;;;;;1.63;1.10;;;8.10;99.90;;;;;;5070381;28;20185;-74
2023/12/27 02:21:47;;;;;;;2.60;1.23;;;8.00;99.90;;;;;;5069555;28;20409;-75
2023/12/27 02:24:15;;;;;;;2.60;1.00;;;8.00;99.90;;;;;;5070792;28;20475;-75
2023/12/27 02:26:41;;;;;;;5.00;1.20;;;8.00;99.90;;;;;;5070768;28;20475;-75
2023/12/27 02:29:07;;;;;;;1.33;0.90;;;7.90;99.90;;;;;;5070880;28;20413;-74
2023/12/27 02:31:32;;;;;;;0.90;0.77;;;7.90;99.90;;;;;;5069518;28;20190;-73
2023/12/27 02:33:58;;;;;;;4.67;1.27;;;7.90;99.90;;;;;;5070745;28;20179;-74
2023/12/27 02:36:24;;;;;;;3.83;1.53;;;7.90;99.90;;;;;;5069301;28;20211;-75
2023/12/27 02:38:50;;;;;;;7.03;1.00;;;7.90;99.90;;;;;;5052488;28;20439;-75
2023/12/27 02:41:15;;;;;;;2.93;1.03;;;8.00;99.90;;;;;;5052545;28;20709;-75
2023/12/27 02:43:41;;;;;;;1.93;1.00;;;8.00;99.90;;;;;;5070428;28;20183;-74
2023/12/27 02:46:06;;;;;;;1.23;0.90;;;8.00;99.90;;;;;;5069165;28;20218;-73
2023/12/27 02:48:32;;;;;;;1.20;1.10;;;8.10;99.90;;;;;;5052603;28;20186;-73
2023/12/27 02:50:57;;;;;;;2.50;1.00;;;8.10;99.90;;;;;;5069531;28;20175;-73
2023/12/27 02:53:23;;;;;;;2.70;0.97;;;8.20;99.90;;;;;;5070652;28;20867;-74
2023/12/27 02:55:49;;;;;;;0.97;0.87;;;8.20;99.90;;;;;;5052669;28;20206;-74
2023/12/27 02:58:15;;;;;;;3.23;1.03;;;8.20;99.90;;;;;;5069303;28;20845;-74
2023/12/27 03:00:41;;;;;;;3.93;1.00;;;8.30;99.90;;;;;;5070485;28;20191;-73
2023/12/27 03:03:07;;;;;;;3.53;1.07;;;8.30;99.90;;;;;;5070615;28;20179;-73
2023/12/27 03:05:33;;;;;;;2.43;0.80;;;8.20;99.90;;;;;;5070307;28;20469;-73
2023/12/27 03:07:58;;;;;;;2.70;1.00;;;8.20;99.90;;;;;;5070424;28;20188;-73
2023/12/27 03:10:24;;;;;;;2.23;1.00;;;8.20;99.90;;;;;;5068054;28;20182;-74
2023/12/27 03:12:49;;;;;;;0.97;0.87;;;8.20;99.90;;;;;;5069783;28;20179;-74
2023/12/27 03:15:15;;;;;;;2.63;0.83;;;8.20;99.90;;;;;;5069716;28;20210;-73
2023/12/27 03:17:40;;;;;;;1.27;1.00;;;8.20;99.90;;;;;;5069655;28;20669;-74
2023/12/27 03:20:07;;;;;;;3.83;1.00;;;8.20;99.90;;;;;;5068373;28;20179;-74
2023/12/27 03:22:32;;;;;;;1.37;0.97;;;8.20;99.90;;;;;;5068515;28;20205;-73
2023/12/27 03:24:58;;;;;;;5.03;1.47;;;8.20;99.90;;;;;;5068273;28;20490;-73
2023/12/27 03:27:23;;;;;;;3.23;1.00;;;8.20;99.90;;;;;;5068774;28;20185;-74
2023/12/27 03:29:49;;;;;;;2.10;1.00;;;8.10;99.90;;;;;;5068796;28;20179;-75
2023/12/27 03:32:14;;;;;;;4.87;1.87;;;8.20;99.90;;;;;;5069919;28;20171;-74
2023/12/27 03:34:40;;;;;;;2.30;1.77;;;7.90;99.90;;;;;;5069780;28;20213;-74
2023/12/27 03:37:06;;;;;;;2.63;2.03;;;8.00;99.90;;;;;;5068664;28;20858;-75
2023/12/27 03:39:31;;;;;;;5.83;2.40;;;7.90;99.90;;;;;;5068595;28;20183;-75
2023/12/27 03:41:57;;;;;;;2.67;2.23;;;7.80;99.90;;;;;;5069505;28;20191;-74
2023/12/27 03:44:22;;;;;;;4.43;2.57;;;7.70;99.90;;;;;;5068302;28;20179;-74
2023/12/27 03:46:48;;;;;;;6.43;2.93;;;7.70;99.90;;;;;;5067678;28;20681;-73
2023/12/27 03:49:13;;;;;;;3.13;2.03;;;7.70;99.90;;;;;;5067806;28;20185;-74
2023/12/27 03:51:39;;;;;;;1.83;1.73;;;7.60;99.90;;;;;;5067637;28;20195;-74
2023/12/27 03:54:04;;;;;;;2.73;2.00;;;7.60;99.90;;;;;;5069049;28;20179;-73
2023/12/27 03:56:30;;;;;;;2.60;1.80;;;7.50;99.90;;;;;;5067397;28;20344;-73
2023/12/27 03:58:56;;;;;;;5.67;2.10;;;7.50;99.90;;;;;;5051079;28;20191;-74
2023/12/27 04:01:21;;;;;;;3.40;1.90;;;7.40;99.90;;;;;;5069163;28;20183;-74
2023/12/27 04:03:48;;;;;;;5.90;2.20;;;7.40;99.90;;;;;;5068928;28;20183;-74
2023/12/27 04:06:19;;;;;;;2.30;1.50;;;7.30;99.90;;;;;;5068483;28;20214;-74
2023/12/27 04:08:46;;;;;;;6.23;1.50;;;7.10;99.90;;;;;;5067088;28;20486;-74
2023/12/27 04:11:12;;;;;;;1.60;1.33;;;7.10;99.90;;;;;;5067479;28;20417;-74
2023/12/27 04:13:38;;;;;;;2.07;1.20;;;7.10;99.90;;;;;;5050824;28;20937;-74
2023/12/27 04:16:03;;;;;;;4.57;1.40;;;7.00;99.90;;;;;;5067722;28;20207;-74
2023/12/27 04:18:29;;;;;;;3.63;1.77;;;6.90;99.90;;;;;;5067633;28;20673;-74
2023/12/27 04:20:55;;;;;;;5.30;1.47;;;6.90;99.90;;;;;;5067720;28;20943;-74
2023/12/27 04:23:20;;;;;;;5.60;2.17;;;6.80;99.90;;;;;;5051078;28;20254;-73
2023/12/27 04:25:46;;;;;;;2.40;1.37;;;6.70;99.90;;;;;;5069315;28;20233;-75
2023/12/27 04:28:11;;;;;;;3.43;1.40;;;6.70;99.90;;;;;;5069243;28;20186;-74
2023/12/27 04:30:37;;;;;;;3.20;1.83;;;6.60;99.90;;;;;;5069134;28;20202;-75
2023/12/27 04:33:03;;;;;;;6.90;1.87;;;6.50;99.90;;;;;;5067676;28;20190;-75
2023/12/27 04:35:29;;;;;;;2.40;1.63;;;6.40;99.90;;;;;;5067337;28;20214;-74
2023/12/27 04:37:54;;;;;;;1.40;0.90;;;6.40;99.90;;;;;;5050566;28;21316;-75
2023/12/27 04:40:20;;;;;;;2.70;1.10;;;6.40;99.90;;;;;;5068527;28;20179;-73
2023/12/27 04:42:46;;;;;;;2.70;1.57;;;6.30;99.90;;;;;;5068259;28;20194;-73
2023/12/27 04:45:11;;;;;;;3.57;2.13;;;6.20;99.90;;;;;;5068439;28;20238;-74
2023/12/27 04:47:37;;;;;;;3.20;1.20;;;6.20;99.90;;;;;;5066976;28;20939;-74
2023/12/27 04:50:04;;;;;;;1.43;1.20;;;6.10;99.90;;;;;;5050514;28;20195;-74
2023/12/27 04:52:29;;;;;;;3.97;1.30;;;6.10;99.90;;;;;;5068180;28;20425;-74
2023/12/27 04:54:55;;;;;;;3.30;1.10;;;6.10;99.90;;;;;;5050103;28;20421;-74
2023/12/27 04:57:21;;;;;;;1.57;1.37;;;6.10;99.90;;;;;;5068261;28;20586;-75
2023/12/27 04:59:46;;;;;;;4.10;1.30;;;6.10;99.90;;;;;;5066996;28;20180;-74
2023/12/27 05:02:12;;;;;;;1.30;1.20;;;6.30;99.90;;;;;;5049985;28;20248;-74
2023/12/27 05:04:37;;;;;;;2.50;1.17;;;6.10;99.90;;;;;;5066896;28;20191;-74
2023/12/27 05:07:03;;;;;;;8.67;1.70;;;6.20;99.90;;;;;;5068391;28;20206;-74
2023/12/27 05:09:28;;;;;;;2.40;1.53;;;6.30;99.90;;;;;;5068690;28;20190;-74
2023/12/27 05:11:54;;;;;;;6.00;2.00;;;6.40;99.90;;;;;;5067431;28;20194;-74
2023/12/27 05:14:20;;;;;;;1.27;1.17;;;6.40;99.90;;;;;;5068781;28;20184;-73
2023/12/27 05:16:48;;;;;;;5.30;2.67;;;6.40;99.90;;;;;;5067138;28;20211;-74
2023/12/27 05:19:14;;;;;;;2.70;1.70;;;6.40;99.90;;;;;;5067273;28;20282;-74
2023/12/27 05:21:40;;;;;;;3.73;1.50;;;6.40;99.90;;;;;;5068301;28;20516;-74
2023/12/27 05:24:05;;;;;;;2.00;1.50;;;6.40;99.90;;;;;;5068481;28;20209;-74
2023/12/27 05:26:31;;;;;;;2.70;1.50;;;6.40;99.90;;;;;;5068108;28;20255;-73
2023/12/27 05:28:57;;;;;;;5.07;1.70;;;6.50;99.90;;;;;;5066849;28;20186;-74
2023/12/27 05:31:22;;;;;;;2.47;1.80;;;6.60;99.90;;;;;;5066740;28;20187;-74
2023/12/27 05:33:48;;;;;;;4.57;1.53;;;6.50;99.90;;;;;;5053054;28;20421;-74
2023/12/27 05:36:13;;;;;;;4.67;2.07;;;6.40;99.90;;;;;;5053208;28;20226;-74
2023/12/27 05:38:39;;;;;;;4.07;1.70;;;6.30;99.90;;;;;;5071451;28;20195;-73
2023/12/27 05:41:05;;;;;;;4.17;2.07;;;6.30;99.90;;;;;;5071485;28;20191;-73
2023/12/27 05:43:30;;;;;;;4.50;1.80;;;6.30;99.90;;;;;;5070066;28;20421;-73
2023/12/27 05:45:56;;;;;;;3.70;1.73;;;6.20;99.90;;;;;;5071078;28;20219;-73
2023/12/27 05:48:21;;;;;;;5.20;2.50;;;6.20;99.90;;;;;;5071369;28;20260;-75
2023/12/27 05:50:47;;;;;;;1.97;1.73;;;6.10;99.90;;;;;;5053116;28;20673;-73
2023/12/27 05:53:12;;;;;;;18.17;3.30;;;6.10;99.90;;;;;;5036254;28;20197;-74
2023/12/27 05:55:38;;;;;;;4.13;1.53;;;6.20;99.90;;;;;;5070907;28;20602;-74
2023/12/27 05:58:04;;;;;;;4.90;2.17;;;6.20;99.90;;;;;;5069565;28;20187;-74
2023/12/27 06:00:29;;;;;;;3.83;2.13;;;6.20;99.90;;;;;;5070897;28;20658;-74
2023/12/27 06:02:55;;;;;;;6.10;1.90;;;6.20;99.90;;;;;;5069420;28;20191;-74
2023/12/27 06:05:22;;;;;;;4.63;2.37;;;6.20;99.90;;;;;;5069141;28;20215;-74
2023/12/27 06:07:47;;;;;;;9.00;2.03;;;6.20;99.90;;;;;;5069181;28;20191;-73
2023/12/27 06:10:13;;;;;;;3.63;1.50;;;6.20;99.90;;;;;;5069447;28;20881;-73
2023/12/27 06:12:40;;;;;;;9.80;2.20;;;6.20;99.90;;;;;;5069238;28;20179;-73
2023/12/27 06:15:07;;;;;;;2.40;2.10;;;6.10;99.90;;;;;;5070335;28;20426;-73
2023/12/27 06:17:32;;;;;;;5.13;2.30;;;6.10;99.90;;;;;;5070630;28;20179;-75
2023/12/27 06:19:58;;;;;;;4.97;2.37;;;6.10;99.90;;;;;;5069047;28;20464;-74
2023/12/27 06:22:24;;;;;;;16.93;10.40;;;6.00;99.90;;;;;;5070383;28;20194;-73
2023/12/27 06:24:50;;;;;;;10.47;5.30;;;6.00;99.90;;;;;;5068934;28;20208;-74
2023/12/27 06:27:15;;;;;;;4.93;2.20;;;6.00;99.90;;;;;;5052278;28;21151;-74
2023/12/27 06:29:41;;;;;;;6.97;1.80;;;6.10;99.90;;;;;;5052230;28;20218;-74
2023/12/27 06:32:07;;;;;;;5.73;1.40;;;6.20;99.90;;;;;;5035842;28;20219;-74
2023/12/27 06:34:33;;;;;;;5.60;1.87;;;6.20;99.90;;;;;;5070319;28;20503;-74
2023/12/27 06:36:58;;;;;;;6.63;1.90;;;6.30;99.90;;;;;;5068733;28;20656;-75
2023/12/27 06:39:24;;;;;;;5.20;1.83;;;6.30;99.90;;;;;;5070267;28;20194;-76
2023/12/27 06:41:49;;;;;;;3.13;1.53;;;6.30;99.90;;;;;;5070209;28;20202;-75
2023/12/27 06:44:15;;;;;;;4.77;1.60;;;6.40;99.90;;;;;;5068718;28;20650;-74
2023/12/27 06:46:40;;;;;;;8.70;1.67;;;6.40;99.90;;;;;;5068842;28;20218;-74
2023/12/27 06:49:06;;;;;;;2.43;1.30;;;6.40;99.90;;;;;;5051027;28;20274;-74
2023/12/27 06:51:32;;;;;;;8.03;1.53;;;6.40;99.90;;;;;;5034893;28;20197;-75
2023/12/27 06:53:57;;;;;;;2.00;1.60;;;6.40;99.90;;;;;;5067497;28;20179;-73
2023/12/27 06:56:23;;;;;;;2.97;2.03;;;6.30;99.90;;;;;;5066897;28;20333;-74
2023/12/27 06:58:48;;;;;;;3.30;1.60;;;6.30;99.90;;;;;;5066876;28;20287;-74
2023/12/27 07:01:15;;;;;;;6.93;1.77;;;6.30;99.90;;;;;;5050167;28;20195;-73
2023/12/27 07:03:40;;;;;;;5.00;1.70;;;6.10;99.90;;;;;;5050183;28;20207;-73
2023/12/27 07:06:06;;;;;;;8.93;1.57;;;6.20;99.90;;;;;;5066783;28;20507;-75
2023/12/27 07:08:32;;;;;;;7.10;2.22;;;6.10;99.90;;;;;;5066467;28;20607;-74
2023/12/27 07:10:57;;;;;;;4.40;2.07;;;6.10;99.90;;;;;;5050068;28;20196;-74
2023/12/27 07:13:23;;;;;;;2.40;1.63;;;6.00;99.90;;;;;;5066652;28;20194;-74
2023/12/27 07:15:48;;;;;;;7.40;1.80;;;6.10;99.90;;;;;;5066772;28;20234;-74
2023/12/27 07:18:15;;;;;;;4.40;1.87;;;6.10;99.90;;;;;;5050056;28;20654;-74
2023/12/27 07:20:40;;;;;;;3.20;2.00;;;6.10;99.90;;;;;;5068074;28;20755;-74
2023/12/27 07:23:06;;;;;;;4.80;2.30;;;6.10;99.90;;;;;;5066668;28;20429;-74
2023/12/27 07:25:32;;;;;;;4.40;2.00;;;6.10;99.90;;;;;;5066215;28;20265;-74
2023/12/27 07:27:57;;;;;;;4.70;1.90;;;6.10;99.90;;;;;;5067958;28;20183;-73
2023/12/27 07:30:23;;;;;;;6.03;2.03;;;6.20;99.90;;;;;;5066796;28;20791;-74
2023/12/27 07:32:48;;;;;;;7.50;2.43;;;6.10;99.90;;;;;;5066464;28;20205;-74
2023/12/27 07:35:14;;;;;;;6.90;2.20;;;6.20;99.90;;;;;;5068025;28;20696;-74
2023/12/27 07:37:41;;;;;;;6.13;2.20;;;6.20;99.90;;;;;;5068036;28;20201;-75
2023/12/27 07:40:09;;;;;;;8.53;2.50;;;6.20;99.90;;;;;;5065971;28;20205;-74
2023/12/27 07:42:34;;;;;;;1.77;1.60;;;6.20;99.90;;;;;;5067754;28;20432;-74
2023/12/27 07:45:00;;;;;;;6.13;1.80;;;6.20;99.90;;;;;;5067493;28;20465;-74
2023/12/27 07:47:26;;;;;;;5.13;2.10;;;6.20;99.90;;;;;;5067526;28;20425;-74
2023/12/27 07:49:51;;;;;;;7.00;2.30;;;6.20;99.90;;;;;;5066171;28;20664;-74
2023/12/27 07:52:17;;;;;;;3.53;1.67;;;6.20;99.90;;;;;;5049934;28;20191;-74
2023/12/27 07:54:43;;;;;;;12.57;2.30;;;6.20;99.90;;;;;;5067957;28;20605;-75
2023/12/27 07:57:08;;;;;;;3.90;1.83;;;6.20;99.90;;;;;;5067916;28;20444;-74
2023/12/27 07:59:34;;;;;;;4.67;2.03;;;6.20;99.90;;;;;;5066730;28;20240;-74
2023/12/27 08:02:00;;;;;;;3.77;1.70;;;6.30;99.90;;;;;;5067847;28;20658;-74
2023/12/27 08:04:26;;;;;;;5.90;2.83;;;6.40;99.90;;;;;;5067579;28;20546;-74
2023/12/27 08:06:52;;;;;;;5.33;2.70;;;6.40;99.90;;;;;;5067549;28;20499;-74
2023/12/27 08:09:18;;;;;;;8.53;2.40;;;6.40;99.90;;;;;;5065989;28;20213;-74
2023/12/27 08:11:44;;;;;;;5.20;2.60;;;6.40;99.90;;;;;;5049389;28;20421;-74
2023/12/27 08:14:09;;;;;;;3.10;1.70;;;6.50;99.90;;;;;;5067287;28;21217;-73
2023/12/27 08:16:35;;;;;;;2.17;1.97;;;6.40;99.90;;;;;;5065834;28;20234;-72
2023/12/27 08:19:01;;;;;;;3.70;2.20;;;6.60;99.90;;;;;;5065830;28;20657;-74
2023/12/27 08:21:26;;;;;;;4.90;2.33;;;6.70;99.90;;;;;;5048871;28;20281;-74
2023/12/27 08:23:53;;;;;;;11.80;2.37;;;6.70;99.90;;;;;;5065604;28;20191;-74
2023/12/27 08:26:19;;;;;;;6.10;1.63;;;6.70;99.90;;;;;;5048846;28;20222;-74
2023/12/27 08:28:45;;;;;;;4.27;2.70;;;6.80;99.90;;;;;;5067143;28;20413;-72
2023/12/27 08:31:13;;;;;;;2.87;1.50;;;6.80;99.90;;;;;;5065556;28;20931;-72
2023/12/27 08:33:38;;;;;;;4.20;1.93;;;6.90;99.90;;;;;;5067032;28;20928;-73
2023/12/27 08:36:05;;;;;;;3.60;2.03;;;6.90;99.90;;;;;;5065129;28;20500;-73
2023/12/27 08:38:31;;;;;;;7.87;2.23;;;7.00;99.90;;;;;;5067048;28;20196;-73
2023/12/27 08:40:57;;;;;;;7.03;1.90;;;7.30;99.90;;;;;;5067021;28;21065;-74
2023/12/27 08:43:27;;;;;;;3.57;2.20;;;8.30;99.90;;;;;;5048529;28;20429;-74
2023/12/27 08:45:54;;;;;;;3.17;2.00;;;8.70;99.90;;;;;;5065682;28;20646;-73
2023/12/27 08:48:20;;;;;;;2.63;1.67;;;8.70;99.90;;;;;;5066892;28;20417;-73
2023/12/27 08:50:46;;;;;;;4.90;2.20;;;9.80;99.90;;;;;;5032196;28;20456;-73
2023/12/27 08:53:12;;;;;;;4.23;2.00;;;10.70;99.90;;;;;;5048726;28;20722;-74
2023/12/27 08:55:37;;;;;;;2.97;1.93;;;11.20;99.90;;;;;;5065463;28;20458;-74
2023/12/27 08:58:03;;;;;;;3.03;1.90;;;11.10;99.90;;;;;;5065352;28;20189;-73
2023/12/27 09:00:29;;;;;;;4.43;1.60;;;10.80;99.90;;;;;;5048922;28;20226;-73
2023/12/27 09:02:54;;;;;;;1.67;1.50;;;10.60;99.90;;;;;;5066791;28;20222;-74
2023/12/27 09:05:20;;;;;;;3.40;1.70;;;10.20;99.90;;;;;;5064935;28;20221;-74
2023/12/27 09:07:46;;;;;;;5.63;2.10;;;9.50;99.90;;;;;;5068002;28;20922;-74
2023/12/27 09:10:11;;;;;;;3.27;1.90;;;9.30;99.90;;;;;;5070545;28;20199;-73
2023/12/27 09:12:40;;;;;;;4.47;2.30;;;9.10;99.90;;;;;;5071556;28;20175;-74
2023/12/27 09:15:09;;;;;;;3.50;1.60;;;9.20;99.90;;;;;;5069573;28;20700;-73
2023/12/27 09:17:35;;;;;;;3.37;2.07;;;9.20;99.90;;;;;;5069618;28;20519;-73
2023/12/27 09:20:01;;;;;;;3.43;1.93;;;9.10;99.90;;;;;;5071103;28;20524;-73
2023/12/27 09:22:28;;;;;;;1.40;1.20;;;9.00;99.90;;;;;;5069594;28;20422;-74
2023/12/27 09:24:53;;;;;;;4.90;1.70;;;9.10;99.90;;;;;;5069219;28;20480;-73
2023/12/27 09:27:19;;;;;;;3.57;1.77;;;8.90;99.90;;;;;;5071109;28;20840;-73
2023/12/27 09:29:45;;;;;;;2.50;1.53;;;9.10;99.90;;;;;;5070899;28;20271;-73
2023/12/27 09:32:10;;;;;;;2.40;1.53;;;9.00;99.90;;;;;;5070567;28;20179;-73
2023/12/27 09:34:36;;;;;;;5.40;1.23;;;9.10;99.90;;;;;;5070877;28;20418;-74
2023/12/27 09:37:03;;;;;;;5.90;1.93;;;9.20;99.90;;;;;;5035933;28;20981;-74
2023/12/27 09:39:29;;;;;;;2.50;1.40;;;9.80;99.90;;;;;;5070571;28;20237;-74
2023/12/27 09:41:55;;;;;;;2.80;1.40;;;10.20;99.00;;;;;;5069037;28;21094;-74
2023/12/27 09:44:21;;;;;;;2.70;1.70;;;11.40;99.30;;;;;;5069171;28;20427;-74
2023/12/27 09:46:47;;;;;;;4.87;2.00;;;11.70;94.60;;;;;;5052095;28;20482;-73
2023/12/27 09:49:13;;;;;;;3.90;1.40;;;11.70;93.50;;;;;;5070179;28;20186;-73
2023/12/27 09:51:39;;;;;;;3.33;1.57;;;12.90;91.90;;;;;;5068542;28;20431;-74
2023/12/27 09:54:05;;;;;;;2.27;1.20;;;14.70;91.20;;;;;;5069937;28;20191;-74
2023/12/27 09:56:31;;;;;;;3.93;1.67;;;15.70;81.80;;;;;;5068559;28;20449;-74
2023/12/27 09:58:59;;;;;;;2.43;1.50;;;14.00;78.10;;;;;;5069782;28;20441;-75
2023/12/27 10:01:26;;;;;;;2.73;1.40;;;14.30;79.20;;;;;;5069762;28;20991;-74
2023/12/27 10:04:22;;;;;;;5.23;1.40;;;14.40;77.40;;;;;;5069668;28;20850;-75
2023/12/27 10:06:49;;;;;;;7.37;2.43;;;14.90;75.60;;;;;;5069011;28;20539;-74
2023/12/27 10:09:15;;;;;;;3.07;1.87;;;15.40;72.70;;;;;;5068134;28;20457;-74
2023/12/27 10:11:42;;;;;;;1.87;1.40;;;15.60;71.40;;;;;;5069519;28;20458;-73
2023/12/27 10:14:09;;;;;;;3.27;1.50;;;16.30;71.30;;;;;;5051071;28;20225;-74
2023/12/27 10:16:36;;;;;;;2.70;1.70;;;19.00;68.00;;;;;;5067863;28;20506;-74
2023/12/27 10:19:04;;;;;;;2.00;1.43;;;18.80;58.60;;;;;;5068767;28;20427;-74
2023/12/27 10:21:43;;;;;;;2.83;1.73;;;19.00;59.20;;;;;;5067730;28;20820;-74
2023/12/27 10:24:09;;;;;;;1.73;1.30;;;19.50;54.70;;;;;;5067440;28;20431;-74
2023/12/27 10:26:35;;;;;;;3.00;1.67;;;21.00;54.20;;;;;;5067331;28;20997;-74
2023/12/27 10:29:02;;;;;;;2.63;1.70;;;21.70;52.00;;;;;;5068817;28;20474;-74
2023/12/27 10:31:28;;;;;;;2.00;1.77;;;23.70;50.70;;;;;;5067592;28;20248;-74
2023/12/27 10:33:55;;;;;;;2.03;1.40;;;24.20;48.00;;;;;;5068779;28;20794;-76
2023/12/27 10:36:20;;;;;;;3.73;1.63;;;24.30;45.30;;;;;;5067184;28;20222;-75
2023/12/27 10:38:46;;;;;;;2.03;1.53;;;23.30;44.50;;;;;;5068753;28;20436;-75
2023/12/27 10:41:12;;;;;;;3.60;2.10;;;23.90;44.00;;;;;;5067162;28;20198;-76
2023/12/27 10:43:38;;;;;;;3.43;1.67;;;23.60;42.70;;;;;;5068553;28;20326;-75
2023/12/27 10:46:08;;;;;;;3.63;1.97;;;22.90;41.80;;;;;;5068579;28;20941;-75
2023/12/27 10:48:37;;;;;;;2.90;2.10;;;22.50;41.70;;;;;;5067173;28;21166;-75
2023/12/27 10:51:03;;;;;;;2.70;1.70;;;21.80;43.30;;;;;;5068766;28;20453;-75
2023/12/27 10:53:31;;;;;;;3.00;2.03;;;22.50;43.10;;;;;;5067159;28;20451;-75
2023/12/27 10:55:59;;;;;;;3.90;2.10;;;23.20;43.60;;;;;;5050575;28;20484;-75
2023/12/27 10:58:25;;;;;;;1.90;1.53;;;24.20;42.50;;;;;;5068560;28;20511;-75
2023/12/27 11:00:52;;;;;;;2.60;1.47;;;25.30;41.60;;;;;;5068634;28;20515;-75
2023/12/27 11:03:19;;;;;;;2.10;1.90;;;25.60;40.70;;;;;;5067194;28;20194;-75
2023/12/27 11:05:45;;;;;;;2.90;2.47;;;25.10;39.40;;;;;;5067347;28;20537;-75
2023/12/27 11:08:13;;;;;;;2.60;1.83;;;26.00;39.90;;;;;;5068926;28;20417;-75
2023/12/27 11:10:40;;;;;;;3.03;1.90;;;26.00;37.60;;;;;;5067403;28;20438;-75
2023/12/27 11:13:10;;;;;;;3.13;2.03;;;25.50;38.70;;;;;;5068720;28;20452;-74
2023/12/27 11:15:39;;;;;;;1.97;1.40;;;24.90;37.20;;;;;;5068843;28;20443;-75
2023/12/27 11:18:08;;;;;;;2.93;1.77;;;24.90;38.70;;;;;;5068837;28;20425;-75
2023/12/27 11:20:35;;;;;;;2.30;1.80;;;24.30;36.30;;;;;;5068968;28;20482;-74
2023/12/27 11:23:02;;;;;;;2.17;1.60;;;23.30;36.50;;;;;;5051747;28;20437;-74
2023/12/27 11:25:28;;;;;;;1.73;1.60;;;23.40;37.30;;;;;;5071123;28;20983;-75
2023/12/27 11:27:53;;;;;;;2.20;1.53;;;23.40;35.80;;;;;;5050869;28;20421;-74
2023/12/27 11:30:22;;;;;;;2.73;1.60;;;24.00;36.50;;;;;;5066895;28;20277;-74
2023/12/27 11:32:48;;;;;;;3.00;2.10;;;24.20;36.60;;;;;;5071283;28;20851;-75
2023/12/27 11:35:30;;;;;;;3.50;1.93;;;23.80;36.40;;;;;;5067488;28;20570;-75
2023/12/27 11:38:15;;;;;;;1.93;1.83;;;23.20;36.10;;;;;;5068830;28;20328;-75
2023/12/27 11:40:43;;;;;;;4.60;1.97;;;22.90;37.50;;;;;;5067030;28;20437;-74
2023/12/27 11:43:08;;;;;;;3.07;1.47;;;22.10;35.60;;;;;;5067011;28;20503;-75
2023/12/27 11:46:01;;;;;;;2.60;2.10;;;22.20;38.00;;;;;;5068473;28;20479;-74
2023/12/27 11:48:31;;;;;;;2.97;1.90;;;22.20;36.50;;;;;;5049094;28;20218;-74
2023/12/27 11:50:59;;;;;;;3.07;1.67;;;22.20;36.00;;;;;;5068145;28;20417;-74
2023/12/27 11:53:28;;;;;;;6.30;3.70;;;22.00;35.80;;;;;;5067940;28;20450;-74
2023/12/27 11:55:58;;;;;;;6.77;4.63;;;21.30;44.00;;;;;;5067551;28;20436;-75
2023/12/27 11:58:35;;;;;;;9.47;5.10;;;20.30;47.70;;;;;;5067784;28;20416;-74
2023/12/27 12:01:21;;;;;;;9.00;5.37;;;19.60;50.60;;;;;;5068013;28;21079;-74
2023/12/27 12:04:10;;;;;;;11.90;5.07;;;18.20;53.80;;;;;;5067818;28;20501;-75
2023/12/27 12:06:54;;;;;;;7.37;4.67;;;17.30;58.00;;;;;;5061965;28;20522;-74
2023/12/27 12:09:33;;;;;;;11.90;4.17;;;16.20;67.20;;;;;;5067696;28;20415;-74
2023/12/27 12:12:21;;;;;;;6.80;4.07;;;15.80;75.80;;;;;;5066270;28;20434;-74
2023/12/27 12:14:49;;;;;;;7.10;4.40;;;15.20;84.60;;;;;;5067721;28;20432;-75
2023/12/27 12:17:15;;;;;;;10.83;4.70;;;14.90;90.30;;;;;;5067818;28;20489;-75
2023/12/27 12:19:41;;;;;;;8.37;4.83;;;14.80;92.50;;;;;;5066060;28;20449;-75
2023/12/27 12:22:07;;;;;;;11.47;3.50;;;14.50;93.60;;;;;;5065956;28;20196;-74
2023/12/27 12:24:33;;;;;;;8.20;3.83;;;14.40;94.80;;;;;;5067824;28;20421;-75
2023/12/27 12:26:59;;;;;;;7.53;4.23;;;14.30;95.70;;;;;;5067305;28;20310;-74
2023/12/27 12:29:28;;;;;;;36.53;18.17;;;14.00;97.60;;;;;;5066143;28;20185;-74
2023/12/27 12:31:54;;;;;;;14.60;8.60;;;13.80;99.50;;;;;;5049387;28;20425;-75
2023/12/27 12:34:21;;;;;;;16.30;5.77;;;13.70;99.90;;;;;;5065838;28;20417;-74
2023/12/27 12:36:47;;;;;;;7.00;4.30;;;13.60;99.90;;;;;;5067370;28;20469;-74
2023/12/27 12:39:16;;;;;;;8.40;4.90;;;13.50;99.90;;;;;;5065821;28;20537;-74
2023/12/27 12:41:42;;;;;;;6.37;3.73;;;13.30;99.90;;;;;;5067183;28;20976;-74
2023/12/27 12:44:12;;;;;;;8.37;4.47;;;13.20;99.90;;;;;;5071601;28;20425;-74
2023/12/27 12:46:39;;;;;;;6.90;4.30;;;13.10;99.90;;;;;;5071231;28;20482;-76
2023/12/27 12:49:05;;;;;;;10.33;3.90;;;13.10;99.90;;;;;;5069939;28;20472;-75